Latest Coastal Weather Observations for Creal Reef

IDQ60701

Issued at 1:52 am EST Friday 5 March 2021 (issued every 10 minutes, with the page automatically refreshed every 10 minutes)

About coastal observations | Map of coastal stations | Coastal observations for QLD | Marine services | Other Formats
Station Details ID: 200736 Name: CREAL REEF Lat: -20.53 Lon: 150.38 Height: 1.7 m
Data from the previous 72 hours. | See also: Recent months for locations in Queensland
Date/Time
EST
Wind Sea
Height
m
Swell Vis
km
Cloud Weather Temp
°C
Press
MSL
hPa
Rain since
9am
mm
Dir  Spd
kts
Gust
kts
Height
m
Period
s
Dir
05/01:30am SE 28 34 - - - - - - - 27.0 1002.9 -
05/01:00am SE 30 35 - - - - - - - 27.2 1002.8 -
05/12:30am SE 31 36 - - - - - - - 27.3 1003.1 -
05/12:00am SE 29 36 - - - - - - - 26.7 1003.4 -
 
Date/Time
EST
Wind Sea
Height
m
Swell Vis
km
Cloud Weather Temp
°C
Press
MSL
hPa
Rain since
9am
mm
Dir  Spd
kts
Gust
kts
Height
m
Period
s
Dir
04/11:30pm SE 31 36 - - - - - - - 27.0 1003.5 -
04/11:00pm SE 28 33 - - - - - - - 26.3 1003.6 -
04/10:30pm SE 31 36 - - - - - - - 26.9 1003.7 -
04/10:00pm SE 30 36 - - - - - - - 26.7 1003.8 -
04/09:30pm SE 34 42 - - - - - - - 25.0 1004.1 -
04/09:00pm SE 31 36 - - - - - - - 26.8 1003.7 -
04/08:30pm SE 33 43 - - - - - - - 25.7 1003.4 -
04/08:18pm SE 31 41 - - - - - - - 25.7 1003.3 -
04/08:00pm SE 32 39 - - - - - - - 26.5 1003.1 -
04/07:30pm SE 28 34 - - - - - - - 26.8 1002.9 -
04/07:00pm SE 26 31 - - - - - - - 26.9 1002.8 -
04/06:30pm SE 24 28 - - - - - - - 26.3 1002.5 -
04/06:00pm ESE 27 33 - - - - - - - 25.2 1002.5 -
04/05:30pm ESE 29 34 - - - - - - - 24.4 1002.3 -
04/05:00pm ESE 24 27 - - - - - - - 27.4 1001.6 -
04/04:30pm ESE 23 28 - - - - - - - 27.3 1001.5 -
04/04:00pm ESE 23 27 - - - - - - - 27.3 1001.6 -
04/03:30pm ESE 22 26 - - - - - - - 27.2 1001.8 -
04/03:00pm ESE 22 25 - - - - - - - 26.9 1001.6 -
04/02:30pm ESE 28 35 - - - - - - - 25.0 1002.1 -
04/02:15pm ESE 25 37 - - - - - - - 26.5 1001.9 -
04/02:00pm ESE 25 29 - - - - - - - 27.5 1001.8 -
04/01:30pm SE 25 29 - - - - - - - 27.7 1002.2 -
04/01:00pm SE 25 29 - - - - - - - 27.6 1002.6 -
04/12:30pm SE 24 28 - - - - - - - 27.5 1002.8 -
04/12:00pm ESE 23 28 - - - - - - - 27.9 1003.3 -
04/11:30am ESE 25 29 - - - - - - - 27.8 1003.6 -
04/11:00am ESE 24 29 - - - - - - - 27.8 1004.0 -
04/10:30am SE 23 26 - - - - - - - 27.9 1004.1 -
04/10:00am SE 22 27 - - - - - - - 27.8 1004.2 -
04/09:30am SE 23 28 - - - - - - - 27.9 1004.2 -
04/09:00am SE 25 28 - - - - - - - 27.8 1004.1 -
04/08:30am SE 25 29 - - - - - - - 27.9 1003.9 -
04/08:00am SE 24 27 - - - - - - - 27.9 1003.7 -
04/07:30am SE 23 27 - - - - - - - 27.9 1003.6 -
04/07:00am SE 23 26 - - - - - - - 27.7 1003.4 -
04/06:30am SE 24 29 - - - - - - - 27.7 1003.0 -
04/06:00am SE 24 29 - - - - - - - 27.6 1002.6 -
04/05:30am SE 24 28 - - - - - - - 27.7 1002.3 -
04/05:00am SE 24 27 - - - - - - - 27.7 1002.2 -
04/04:30am SE 23 27 - - - - - - - 27.7 1002.2 -
04/04:00am SE 23 26 - - - - - - - 27.8 1002.3 -
04/03:30am SE 23 26 - - - - - - - 27.7 1002.0 -
04/03:00am SE 21 25 - - - - - - - 27.8 1002.5 -
04/02:30am SE 21 24 - - - - - - - 27.8 1002.7 -
04/02:00am SE 20 23 - - - - - - - 27.7 1003.0 -
04/01:30am ESE 21 24 - - - - - - - 27.8 1003.3 -
04/01:00am ESE 21 24 - - - - - - - 27.5 1003.5 -
04/12:30am ESE 20 25 - - - - - - - 27.3 1003.8 -
04/12:00am SE 21 24 - - - - - - - 27.7 1003.9 -
 
Date/Time
EST
Wind Sea
Height
m
Swell Vis
km
Cloud Weather Temp
°C
Press
MSL
hPa
Rain since
9am
mm
Dir  Spd
kts
Gust
kts
Height
m
Period
s
Dir
03/11:30pm SE 22 25 - - - - - - - 27.5 1004.1 -
03/11:00pm SE 23 27 - - - - - - - 27.5 1004.0 -
03/10:30pm SE 22 25 - - - - - - - 27.5 1004.3 -
03/10:00pm SE 22 25 - - - - - - - 27.3 1004.5 -
03/09:30pm SE 23 27 - - - - - - - 27.1 1004.4 -
03/09:00pm SE 23 27 - - - - - - - 27.2 1004.4 -
03/08:30pm SE 23 27 - - - - - - - 27.1 1004.6 -
03/08:00pm SE 23 27 - - - - - - - 27.1 1004.4 -
03/07:30pm SE 25 29 - - - - - - - 27.4 1003.9 -
03/07:00pm SE 23 27 - - - - - - - 27.3 1003.8 -
03/06:30pm SE 20 26 - - - - - - - 27.2 1003.6 -
03/06:00pm SE 16 19 - - - - - - - 26.8 1003.8 -
03/05:30pm SE 14 17 - - - - - - - 25.8 1003.8 -
03/05:00pm ESE 15 19 - - - - - - - 25.3 1003.8 -
03/04:30pm ESE 18 22 - - - - - - - 25.1 1004.0 -
03/04:00pm ESE 20 25 - - - - - - - 25.1 1004.0 -
03/03:30pm ESE 25 29 - - - - - - - 24.7 1004.1 -
03/03:21pm ESE 25 34 - - - - - - - 24.2 - -
03/03:19pm ESE 27 34 - - - - - - - 24.4 1004.2 -
03/03:00pm SE 22 28 - - - - - - - 25.3 1004.0 -
03/02:30pm SE 25 31 - - - - - - - 26.1 1003.9 -
03/02:00pm SE 21 25 - - - - - - - 26.5 1003.8 -
03/01:30pm SE 21 25 - - - - - - - 26.9 1004.2 -
03/01:00pm SE 20 24 - - - - - - - 26.8 1004.5 -
03/12:30pm SE 21 26 - - - - - - - 26.5 1004.8 -
03/12:00pm SE 20 24 - - - - - - - 27.1 1004.9 -
03/11:53am SSE 22 25 - - - - - - - 26.6 - -
03/11:30am SE 21 25 - - - - - - - 25.7 1005.2 -
03/11:27am ESE 21 25 - - - - - - - 26.2 - -
03/11:00am SE 21 25 - - - - - - - 28.2 1005.5 -
03/10:30am SE 21 26 - - - - - - - 28.1 1005.7 -
03/10:00am SSE 21 27 - - - - - - - 28.2 1005.7 -
03/09:30am SSE 20 24 - - - - - - - 28.1 1006.0 -
03/09:00am SE 20 24 - - - - - - - 28.1 1006.0 -
03/08:30am SE 22 25 - - - - - - - 28.1 1005.6 -
03/08:00am SE 20 24 - - - - - - - 28.0 1005.3 -
03/07:30am SE 20 24 - - - - - - - 28.0 1004.9 -
03/07:00am SE 19 23 - - - - - - - 27.6 1004.2 -
03/06:30am SE 20 23 - - - - - - - 27.4 1004.1 -
03/06:00am SE 18 22 - - - - - - - 26.8 1003.9 -
03/05:30am ESE 18 22 - - - - - - - 25.8 1004.2 -
03/05:00am E 18 23 - - - - - - - 27.3 1004.2 -
03/04:30am E 15 19 - - - - - - - 26.6 1003.8 -
03/04:00am SE 19 22 - - - - - - - 27.8 1003.7 -
03/03:30am SE 20 22 - - - - - - - 27.9 1003.6 -
03/03:00am SE 19 22 - - - - - - - 27.9 1003.4 -
03/02:30am SE 19 22 - - - - - - - 27.9 1003.5 -
03/02:00am ESE 19 22 - - - - - - - 27.9 1003.7 -
03/01:30am SE 19 22 - - - - - - - 27.8 1003.8 -
03/01:00am SE 18 20 - - - - - - - 27.7 1004.1 -
03/12:30am ESE 21 24 - - - - - - - 27.8 1004.3 -
03/12:00am ESE 23 28 - - - - - - - 27.2 1004.5 -
 
Date/Time
EST
Wind Sea
Height
m
Swell Vis
km
Cloud Weather Temp
°C
Press
MSL
hPa
Rain since
9am
mm
Dir  Spd
kts
Gust
kts
Height
m
Period
s
Dir
02/11:30pm SE 23 27 - - - - - - - 28.0 1004.8 -
02/11:00pm SE 23 26 - - - - - - - 28.0 1005.1 -
02/10:30pm SE 24 27 - - - - - - - 27.9 1005.3 -
02/10:00pm SE 23 29 - - - - - - - 27.9 1005.2 -
02/09:30pm SE 25 30 - - - - - - - 28.0 1005.0 -
02/09:00pm SE 25 29 - - - - - - - 27.6 1004.9 -
02/08:30pm SE 23 27 - - - - - - - 27.4 1004.6 -
02/08:00pm SE 27 31 - - - - - - - 27.0 1004.4 -
02/07:30pm SE 27 31 - - - - - - - 27.6 1004.3 -
02/07:00pm SE 25 29 - - - - - - - 27.9 1003.9 -
02/06:30pm SE 26 30 - - - - - - - 27.9 1003.7 -
02/06:00pm SE 27 30 - - - - - - - 27.7 1003.4 -
02/05:30pm SE 23 30 - - - - - - - 27.7 1003.1 -
02/05:00pm SE 22 27 - - - - - - - 27.2 1002.9 -
02/04:30pm SE 24 28 - - - - - - - 26.5 1003.0 -
02/04:00pm SE 25 28 - - - - - - - 27.8 1002.7 -
02/03:30pm SE 24 28 - - - - - - - 27.8 1002.6 -
02/03:00pm SE 24 29 - - - - - - - 27.9 1002.9 -
02/02:30pm SE 23 27 - - - - - - - 27.8 1003.1 -
02/02:00pm SE 23 26 - - - - - - - 27.5 1003.4 -
02/01:30pm SE 22 25 - - - - - - - 27.5 1003.5 -
02/01:00pm SE 21 24 - - - - - - - 27.4 1003.7 -
02/12:30pm SE 20 24 - - - - - - - 27.5 1003.9 -
02/12:00pm SE 22 25 - - - - - - - 27.3 1004.1 -
02/11:30am SE 22 26 - - - - - - - 26.5 1004.5 -
02/11:00am ESE 24 27 - - - - - - - 27.2 1004.8 -
02/10:30am ESE 23 27 - - - - - - - 27.2 1004.8 -
02/10:00am ESE 23 27 - - - - - - - 27.3 1004.9 -
02/09:30am ESE 25 28 - - - - - - - 27.5 1005.0 -
02/09:00am SE 22 26 - - - - - - - 27.4 1004.7 -
02/08:30am ESE 25 29 - - - - - - - 27.4 1004.8 -
02/08:00am ESE 26 30 - - - - - - - 27.4 1004.4 -
02/07:30am ESE 23 27 - - - - - - - 27.1 1004.6 -
02/07:00am ESE 25 29 - - - - - - - 27.3 1004.1 -
02/06:30am ESE 26 29 - - - - - - - 27.4 1003.6 -
02/06:00am ESE 27 31 - - - - - - - 27.2 1003.5 -
02/05:30am ESE 26 29 - - - - - - - 27.1 1003.4 -
02/05:00am ESE 26 31 - - - - - - - 27.2 1003.0 -
02/04:30am ESE 23 28 - - - - - - - 27.2 1003.2 -
02/04:00am SE 30 35 - - - - - - - 27.2 1001.5 -
02/03:30am SE 30 36 - - - - - - - 27.1 1002.3 -
02/03:00am SE 30 36 - - - - - - - 27.0 1001.7 -
02/02:57am SE 32 35 - - - - - - - 27.1 - -
02/02:56am SE 27 33 - - - - - - - 27.0 1002.0 -
02/02:30am SE 21 23 - - - - - - - 26.9 1003.7 -
02/02:00am SE 23 26 - - - - - - - 26.8 1003.9 -

Other formats

Comma delimited format used in spreadsheet applications
http://www.bom.gov.au/fwo/IDQ60701/IDQ60701.94371.axf

JavaScript Object Notation format (JSON) in row-major order
http://www.bom.gov.au/fwo/IDQ60701/IDQ60701.94371.json

Data quality

Most of these data are generated automatically and are frequently updated. Quality checks on data are not normally performed. It is possible for incorrect values to appear. Refer to information at About Latest Weather Observations and please check the disclaimer before using these data.